sensor_id;sensor_type;location;lat;lon;timestamp;P1;durP1;ratioP1;P2;durP2;ratioP2
6842;SDS011;3460;52.028;8.916;2024-02-16T00:02:12;4.53;;;1.83;;
6842;SDS011;3460;52.028;8.916;2024-02-16T00:04:40;3.43;;;1.80;;
6842;SDS011;3460;52.028;8.916;2024-02-16T00:07:08;4.27;;;1.67;;
6842;SDS011;3460;52.028;8.916;2024-02-16T00:09:35;8.93;;;2.23;;
6842;SDS011;3460;52.028;8.916;2024-02-16T00:12:02;3.13;;;1.60;;
6842;SDS011;3460;52.028;8.916;2024-02-16T00:14:29;4.67;;;1.97;;
6842;SDS011;3460;52.028;8.916;2024-02-16T00:16:56;5.73;;;2.03;;
6842;SDS011;3460;52.028;8.916;2024-02-16T00:19:23;5.33;;;1.57;;
6842;SDS011;3460;52.028;8.916;2024-02-16T00:21:50;5.90;;;1.80;;
6842;SDS011;3460;52.028;8.916;2024-02-16T00:24:18;5.37;;;2.43;;
6842;SDS011;3460;52.028;8.916;2024-02-16T00:26:45;3.30;;;1.80;;
6842;SDS011;3460;52.028;8.916;2024-02-16T00:29:12;6.40;;;1.60;;
6842;SDS011;3460;52.028;8.916;2024-02-16T00:31:38;4.10;;;1.83;;
6842;SDS011;3460;52.028;8.916;2024-02-16T00:34:05;3.63;;;1.87;;
6842;SDS011;3460;52.028;8.916;2024-02-16T00:36:32;3.50;;;1.80;;
6842;SDS011;3460;52.028;8.916;2024-02-16T00:38:59;4.03;;;1.70;;
6842;SDS011;3460;52.028;8.916;2024-02-16T00:41:27;3.37;;;1.70;;
6842;SDS011;3460;52.028;8.916;2024-02-16T00:43:54;4.40;;;2.07;;
6842;SDS011;3460;52.028;8.916;2024-02-16T00:46:22;3.30;;;1.60;;
6842;SDS011;3460;52.028;8.916;2024-02-16T00:48:49;3.73;;;1.80;;
6842;SDS011;3460;52.028;8.916;2024-02-16T00:51:16;6.80;;;1.93;;
6842;SDS011;3460;52.028;8.916;2024-02-16T00:53:42;6.70;;;1.87;;
6842;SDS011;3460;52.028;8.916;2024-02-16T00:56:09;3.13;;;1.67;;
6842;SDS011;3460;52.028;8.916;2024-02-16T00:58:39;2.43;;;1.50;;
6842;SDS011;3460;52.028;8.916;2024-02-16T01:01:06;5.50;;;2.10;;
6842;SDS011;3460;52.028;8.916;2024-02-16T01:03:35;3.27;;;1.80;;
6842;SDS011;3460;52.028;8.916;2024-02-16T01:06:02;5.53;;;1.80;;
6842;SDS011;3460;52.028;8.916;2024-02-16T01:08:30;4.37;;;1.70;;
6842;SDS011;3460;52.028;8.916;2024-02-16T01:10:57;3.27;;;1.70;;
6842;SDS011;3460;52.028;8.916;2024-02-16T01:13:24;2.47;;;1.47;;
6842;SDS011;3460;52.028;8.916;2024-02-16T01:15:53;5.10;;;2.07;;
6842;SDS011;3460;52.028;8.916;2024-02-16T01:18:20;4.97;;;1.77;;
6842;SDS011;3460;52.028;8.916;2024-02-16T01:20:47;4.60;;;2.00;;
6842;SDS011;3460;52.028;8.916;2024-02-16T01:23:13;4.07;;;1.90;;
6842;SDS011;3460;52.028;8.916;2024-02-16T01:25:40;4.27;;;1.70;;
6842;SDS011;3460;52.028;8.916;2024-02-16T01:28:07;2.67;;;1.60;;
6842;SDS011;3460;52.028;8.916;2024-02-16T01:30:34;5.13;;;1.70;;
6842;SDS011;3460;52.028;8.916;2024-02-16T01:33:03;3.30;;;2.17;;
6842;SDS011;3460;52.028;8.916;2024-02-16T01:35:31;4.43;;;1.90;;
6842;SDS011;3460;52.028;8.916;2024-02-16T01:37:57;2.93;;;1.43;;
6842;SDS011;3460;52.028;8.916;2024-02-16T01:40:25;3.37;;;1.63;;
6842;SDS011;3460;52.028;8.916;2024-02-16T01:42:52;3.73;;;1.70;;
6842;SDS011;3460;52.028;8.916;2024-02-16T01:45:19;4.87;;;1.77;;
6842;SDS011;3460;52.028;8.916;2024-02-16T01:47:47;3.77;;;1.70;;
6842;SDS011;3460;52.028;8.916;2024-02-16T01:50:17;3.43;;;1.80;;
6842;SDS011;3460;52.028;8.916;2024-02-16T01:52:45;3.50;;;1.70;;
6842;SDS011;3460;52.028;8.916;2024-02-16T01:55:13;3.40;;;1.50;;
6842;SDS011;3460;52.028;8.916;2024-02-16T01:57:42;2.83;;;1.70;;
6842;SDS011;3460;52.028;8.916;2024-02-16T02:00:10;5.97;;;1.80;;
6842;SDS011;3460;52.028;8.916;2024-02-16T02:02:40;5.50;;;1.70;;
6842;SDS011;3460;52.028;8.916;2024-02-16T02:05:07;7.33;;;2.33;;
6842;SDS011;3460;52.028;8.916;2024-02-16T02:07:35;3.13;;;1.50;;
6842;SDS011;3460;52.028;8.916;2024-02-16T02:10:02;5.10;;;1.60;;
6842;SDS011;3460;52.028;8.916;2024-02-16T02:12:29;5.10;;;1.80;;
6842;SDS011;3460;52.028;8.916;2024-02-16T02:14:56;4.53;;;1.70;;
6842;SDS011;3460;52.028;8.916;2024-02-16T02:17:23;2.83;;;1.60;;
6842;SDS011;3460;52.028;8.916;2024-02-16T02:19:49;3.63;;;1.70;;
6842;SDS011;3460;52.028;8.916;2024-02-16T02:22:18;2.87;;;1.70;;
6842;SDS011;3460;52.028;8.916;2024-02-16T02:24:45;3.13;;;1.63;;
6842;SDS011;3460;52.028;8.916;2024-02-16T02:27:12;4.30;;;2.00;;
6842;SDS011;3460;52.028;8.916;2024-02-16T02:29:40;2.87;;;1.53;;
6842;SDS011;3460;52.028;8.916;2024-02-16T02:35:32;2.93;;;1.70;;
6842;SDS011;3460;52.028;8.916;2024-02-16T02:38:00;6.97;;;2.10;;
6842;SDS011;3460;52.028;8.916;2024-02-16T02:40:27;3.57;;;1.70;;
6842;SDS011;3460;52.028;8.916;2024-02-16T02:42:54;1.77;;;1.37;;
6842;SDS011;3460;52.028;8.916;2024-02-16T02:45:21;4.70;;;1.83;;
6842;SDS011;3460;52.028;8.916;2024-02-16T02:47:48;5.23;;;1.50;;
6842;SDS011;3460;52.028;8.916;2024-02-16T02:50:15;2.67;;;1.73;;
6842;SDS011;3460;52.028;8.916;2024-02-16T02:52:41;2.97;;;1.60;;
6842;SDS011;3460;52.028;8.916;2024-02-16T02:55:11;4.63;;;1.50;;
6842;SDS011;3460;52.028;8.916;2024-02-16T02:57:38;5.10;;;2.37;;
6842;SDS011;3460;52.028;8.916;2024-02-16T03:00:05;2.10;;;1.47;;
6842;SDS011;3460;52.028;8.916;2024-02-16T03:02:35;2.27;;;1.60;;
6842;SDS011;3460;52.028;8.916;2024-02-16T03:05:03;6.47;;;1.93;;
6842;SDS011;3460;52.028;8.916;2024-02-16T03:07:30;3.20;;;1.40;;
6842;SDS011;3460;52.028;8.916;2024-02-16T03:09:58;3.80;;;1.63;;
6842;SDS011;3460;52.028;8.916;2024-02-16T03:12:26;4.07;;;1.83;;
6842;SDS011;3460;52.028;8.916;2024-02-16T03:14:53;6.20;;;1.80;;
6842;SDS011;3460;52.028;8.916;2024-02-16T03:17:19;4.93;;;1.63;;
6842;SDS011;3460;52.028;8.916;2024-02-16T03:19:46;3.73;;;1.63;;
6842;SDS011;3460;52.028;8.916;2024-02-16T03:22:13;1.83;;;1.37;;
6842;SDS011;3460;52.028;8.916;2024-02-16T03:24:40;2.77;;;1.70;;
6842;SDS011;3460;52.028;8.916;2024-02-16T03:27:06;2.27;;;1.80;;
6842;SDS011;3460;52.028;8.916;2024-02-16T03:29:35;4.10;;;1.90;;
6842;SDS011;3460;52.028;8.916;2024-02-16T03:32:01;6.67;;;1.77;;
6842;SDS011;3460;52.028;8.916;2024-02-16T03:34:29;4.77;;;1.53;;
6842;SDS011;3460;52.028;8.916;2024-02-16T03:36:56;9.77;;;1.90;;
6842;SDS011;3460;52.028;8.916;2024-02-16T03:39:23;3.23;;;1.50;;
6842;SDS011;3460;52.028;8.916;2024-02-16T03:41:50;2.97;;;1.60;;
6842;SDS011;3460;52.028;8.916;2024-02-16T03:44:17;5.43;;;1.70;;
6842;SDS011;3460;52.028;8.916;2024-02-16T03:46:45;3.67;;;1.40;;
6842;SDS011;3460;52.028;8.916;2024-02-16T03:49:12;4.37;;;1.43;;
6842;SDS011;3460;52.028;8.916;2024-02-16T03:51:39;6.30;;;1.63;;
6842;SDS011;3460;52.028;8.916;2024-02-16T03:54:05;7.43;;;1.73;;
6842;SDS011;3460;52.028;8.916;2024-02-16T03:56:32;4.63;;;1.60;;
6842;SDS011;3460;52.028;8.916;2024-02-16T03:58:59;3.27;;;1.70;;
6842;SDS011;3460;52.028;8.916;2024-02-16T04:01:26;1.87;;;1.50;;
6842;SDS011;3460;52.028;8.916;2024-02-16T04:03:54;3.60;;;1.57;;
6842;SDS011;3460;52.028;8.916;2024-02-16T04:06:21;4.47;;;2.00;;
6842;SDS011;3460;52.028;8.916;2024-02-16T04:08:47;3.57;;;1.63;;
6842;SDS011;3460;52.028;8.916;2024-02-16T04:11:14;7.50;;;1.70;;
6842;SDS011;3460;52.028;8.916;2024-02-16T04:13:41;3.87;;;1.73;;
6842;SDS011;3460;52.028;8.916;2024-02-16T04:16:08;3.50;;;1.80;;
6842;SDS011;3460;52.028;8.916;2024-02-16T04:18:35;2.63;;;1.40;;
6842;SDS011;3460;52.028;8.916;2024-02-16T04:21:03;3.90;;;1.73;;
6842;SDS011;3460;52.028;8.916;2024-02-16T04:23:30;2.43;;;1.67;;
6842;SDS011;3460;52.028;8.916;2024-02-16T04:25:57;4.33;;;1.77;;
6842;SDS011;3460;52.028;8.916;2024-02-16T04:28:24;2.70;;;1.90;;
6842;SDS011;3460;52.028;8.916;2024-02-16T04:30:50;4.13;;;1.97;;
6842;SDS011;3460;52.028;8.916;2024-02-16T04:33:17;2.27;;;1.60;;
6842;SDS011;3460;52.028;8.916;2024-02-16T04:35:44;4.23;;;1.90;;
6842;SDS011;3460;52.028;8.916;2024-02-16T04:38:13;3.30;;;1.70;;
6842;SDS011;3460;52.028;8.916;2024-02-16T04:40:39;5.27;;;1.90;;
6842;SDS011;3460;52.028;8.916;2024-02-16T04:43:06;3.17;;;1.97;;
6842;SDS011;3460;52.028;8.916;2024-02-16T04:45:33;4.13;;;1.70;;
6842;SDS011;3460;52.028;8.916;2024-02-16T04:48:04;6.07;;;1.87;;
6842;SDS011;3460;52.028;8.916;2024-02-16T04:50:31;3.07;;;1.80;;
6842;SDS011;3460;52.028;8.916;2024-02-16T04:52:58;3.17;;;1.70;;
6842;SDS011;3460;52.028;8.916;2024-02-16T04:55:27;3.07;;;1.60;;
6842;SDS011;3460;52.028;8.916;2024-02-16T04:57:55;4.60;;;1.70;;
6842;SDS011;3460;52.028;8.916;2024-02-16T05:00:21;4.93;;;2.13;;
6842;SDS011;3460;52.028;8.916;2024-02-16T05:02:49;3.20;;;1.73;;
6842;SDS011;3460;52.028;8.916;2024-02-16T05:05:16;4.23;;;2.10;;
6842;SDS011;3460;52.028;8.916;2024-02-16T05:07:44;3.77;;;2.30;;
6842;SDS011;3460;52.028;8.916;2024-02-16T05:10:15;3.50;;;1.63;;
6842;SDS011;3460;52.028;8.916;2024-02-16T05:12:43;4.83;;;1.70;;
6842;SDS011;3460;52.028;8.916;2024-02-16T05:15:10;3.70;;;1.60;;
6842;SDS011;3460;52.028;8.916;2024-02-16T05:17:38;3.93;;;1.60;;
6842;SDS011;3460;52.028;8.916;2024-02-16T05:20:08;5.13;;;1.93;;
6842;SDS011;3460;52.028;8.916;2024-02-16T05:22:40;2.77;;;1.50;;
6842;SDS011;3460;52.028;8.916;2024-02-16T05:25:08;4.73;;;2.03;;
6842;SDS011;3460;52.028;8.916;2024-02-16T05:27:35;7.57;;;3.20;;
6842;SDS011;3460;52.028;8.916;2024-02-16T05:30:04;4.00;;;1.67;;
6842;SDS011;3460;52.028;8.916;2024-02-16T05:32:34;2.43;;;1.70;;
6842;SDS011;3460;52.028;8.916;2024-02-16T05:35:00;6.93;;;1.90;;
6842;SDS011;3460;52.028;8.916;2024-02-16T05:37:29;3.47;;;1.70;;
6842;SDS011;3460;52.028;8.916;2024-02-16T05:39:58;3.27;;;1.67;;
6842;SDS011;3460;52.028;8.916;2024-02-16T05:42:33;2.97;;;1.70;;
6842;SDS011;3460;52.028;8.916;2024-02-16T05:45:00;3.07;;;1.90;;
6842;SDS011;3460;52.028;8.916;2024-02-16T05:47:29;6.23;;;1.90;;
6842;SDS011;3460;52.028;8.916;2024-02-16T05:49:55;3.37;;;1.93;;
6842;SDS011;3460;52.028;8.916;2024-02-16T05:52:23;2.80;;;1.80;;
6842;SDS011;3460;52.028;8.916;2024-02-16T05:54:50;5.50;;;1.70;;
6842;SDS011;3460;52.028;8.916;2024-02-16T05:57:18;4.13;;;1.80;;
6842;SDS011;3460;52.028;8.916;2024-02-16T05:59:44;3.77;;;1.80;;
6842;SDS011;3460;52.028;8.916;2024-02-16T06:02:11;6.63;;;1.80;;
6842;SDS011;3460;52.028;8.916;2024-02-16T06:04:39;6.50;;;2.00;;
6842;SDS011;3460;52.028;8.916;2024-02-16T06:07:07;3.87;;;1.97;;
6842;SDS011;3460;52.028;8.916;2024-02-16T06:09:34;2.43;;;1.60;;
6842;SDS011;3460;52.028;8.916;2024-02-16T06:12:02;4.47;;;1.90;;
6842;SDS011;3460;52.028;8.916;2024-02-16T06:14:32;4.83;;;2.10;;
6842;SDS011;3460;52.028;8.916;2024-02-16T06:16:59;4.43;;;2.13;;
6842;SDS011;3460;52.028;8.916;2024-02-16T06:19:26;2.93;;;1.90;;
6842;SDS011;3460;52.028;8.916;2024-02-16T06:21:54;3.13;;;1.80;;
6842;SDS011;3460;52.028;8.916;2024-02-16T06:24:21;3.33;;;1.67;;
6842;SDS011;3460;52.028;8.916;2024-02-16T06:26:48;3.40;;;1.90;;
6842;SDS011;3460;52.028;8.916;2024-02-16T06:29:15;3.10;;;1.90;;
6842;SDS011;3460;52.028;8.916;2024-02-16T06:31:42;5.87;;;1.97;;
6842;SDS011;3460;52.028;8.916;2024-02-16T06:34:09;4.73;;;1.63;;
6842;SDS011;3460;52.028;8.916;2024-02-16T06:36:36;3.67;;;1.97;;
6842;SDS011;3460;52.028;8.916;2024-02-16T06:39:04;4.93;;;2.03;;
6842;SDS011;3460;52.028;8.916;2024-02-16T06:41:30;3.23;;;2.10;;
6842;SDS011;3460;52.028;8.916;2024-02-16T06:43:57;5.13;;;1.90;;
6842;SDS011;3460;52.028;8.916;2024-02-16T06:46:24;5.23;;;2.03;;
6842;SDS011;3460;52.028;8.916;2024-02-16T06:48:52;3.33;;;1.60;;
6842;SDS011;3460;52.028;8.916;2024-02-16T06:51:21;3.93;;;2.30;;
6842;SDS011;3460;52.028;8.916;2024-02-16T06:53:48;6.03;;;2.10;;
6842;SDS011;3460;52.028;8.916;2024-02-16T06:56:17;5.20;;;1.70;;
6842;SDS011;3460;52.028;8.916;2024-02-16T06:58:45;3.97;;;2.20;;
6842;SDS011;3460;52.028;8.916;2024-02-16T07:01:12;4.00;;;1.87;;
6842;SDS011;3460;52.028;8.916;2024-02-16T07:03:39;5.13;;;2.57;;
6842;SDS011;3460;52.028;8.916;2024-02-16T07:06:06;5.90;;;2.23;;
6842;SDS011;3460;52.028;8.916;2024-02-16T07:08:35;5.13;;;2.33;;
6842;SDS011;3460;52.028;8.916;2024-02-16T07:11:02;4.97;;;2.10;;
6842;SDS011;3460;52.028;8.916;2024-02-16T07:13:31;3.37;;;2.20;;
6842;SDS011;3460;52.028;8.916;2024-02-16T07:15:58;7.13;;;2.33;;
6842;SDS011;3460;52.028;8.916;2024-02-16T07:18:25;4.87;;;2.67;;
6842;SDS011;3460;52.028;8.916;2024-02-16T07:20:52;7.40;;;3.13;;
6842;SDS011;3460;52.028;8.916;2024-02-16T07:23:18;6.57;;;2.97;;
6842;SDS011;3460;52.028;8.916;2024-02-16T07:25:45;4.00;;;2.40;;
6842;SDS011;3460;52.028;8.916;2024-02-16T07:28:13;4.27;;;2.40;;
6842;SDS011;3460;52.028;8.916;2024-02-16T07:30:42;5.90;;;2.00;;
6842;SDS011;3460;52.028;8.916;2024-02-16T07:33:08;4.43;;;2.40;;
6842;SDS011;3460;52.028;8.916;2024-02-16T07:35:35;3.57;;;1.93;;
6842;SDS011;3460;52.028;8.916;2024-02-16T07:38:03;2.47;;;2.17;;
6842;SDS011;3460;52.028;8.916;2024-02-16T07:40:30;3.23;;;1.93;;
6842;SDS011;3460;52.028;8.916;2024-02-16T07:42:57;3.30;;;1.87;;
6842;SDS011;3460;52.028;8.916;2024-02-16T07:45:25;4.33;;;1.87;;
6842;SDS011;3460;52.028;8.916;2024-02-16T07:47:53;3.53;;;1.80;;
6842;SDS011;3460;52.028;8.916;2024-02-16T07:50:20;3.73;;;2.03;;
6842;SDS011;3460;52.028;8.916;2024-02-16T07:52:48;7.53;;;1.97;;
6842;SDS011;3460;52.028;8.916;2024-02-16T07:55:16;6.27;;;2.37;;
6842;SDS011;3460;52.028;8.916;2024-02-16T07:57:43;3.00;;;2.03;;
6842;SDS011;3460;52.028;8.916;2024-02-16T08:00:10;3.90;;;2.13;;
6842;SDS011;3460;52.028;8.916;2024-02-16T08:02:37;5.43;;;1.93;;
6842;SDS011;3460;52.028;8.916;2024-02-16T08:05:08;3.37;;;1.83;;
6842;SDS011;3460;52.028;8.916;2024-02-16T08:07:37;4.87;;;2.03;;
6842;SDS011;3460;52.028;8.916;2024-02-16T08:10:04;4.23;;;2.30;;
6842;SDS011;3460;52.028;8.916;2024-02-16T08:12:32;4.83;;;2.00;;
6842;SDS011;3460;52.028;8.916;2024-02-16T08:15:00;3.67;;;1.90;;
6842;SDS011;3460;52.028;8.916;2024-02-16T08:17:28;4.63;;;2.07;;
6842;SDS011;3460;52.028;8.916;2024-02-16T08:19:56;3.33;;;1.93;;
6842;SDS011;3460;52.028;8.916;2024-02-16T08:22:24;4.80;;;2.17;;
6842;SDS011;3460;52.028;8.916;2024-02-16T08:24:51;7.07;;;2.10;;
6842;SDS011;3460;52.028;8.916;2024-02-16T08:27:17;3.53;;;1.93;;
6842;SDS011;3460;52.028;8.916;2024-02-16T08:29:44;6.67;;;1.93;;
6842;SDS011;3460;52.028;8.916;2024-02-16T08:32:11;5.90;;;2.33;;
6842;SDS011;3460;52.028;8.916;2024-02-16T08:34:38;4.73;;;1.87;;
6842;SDS011;3460;52.028;8.916;2024-02-16T08:37:05;5.37;;;2.83;;
6842;SDS011;3460;52.028;8.916;2024-02-16T08:39:34;2.97;;;2.00;;
6842;SDS011;3460;52.028;8.916;2024-02-16T08:42:00;4.23;;;2.10;;
6842;SDS011;3460;52.028;8.916;2024-02-16T08:44:28;3.90;;;2.03;;
6842;SDS011;3460;52.028;8.916;2024-02-16T08:46:55;6.03;;;2.20;;
6842;SDS011;3460;52.028;8.916;2024-02-16T08:49:21;5.77;;;2.00;;
6842;SDS011;3460;52.028;8.916;2024-02-16T08:51:48;3.30;;;1.80;;
6842;SDS011;3460;52.028;8.916;2024-02-16T08:54:15;4.90;;;2.10;;
6842;SDS011;3460;52.028;8.916;2024-02-16T08:56:44;4.93;;;1.90;;
6842;SDS011;3460;52.028;8.916;2024-02-16T08:59:13;3.43;;;1.83;;
6842;SDS011;3460;52.028;8.916;2024-02-16T09:01:40;4.20;;;2.13;;
6842;SDS011;3460;52.028;8.916;2024-02-16T09:04:07;4.40;;;1.93;;
6842;SDS011;3460;52.028;8.916;2024-02-16T09:06:34;4.47;;;2.07;;
6842;SDS011;3460;52.028;8.916;2024-02-16T09:09:01;2.90;;;1.80;;
6842;SDS011;3460;52.028;8.916;2024-02-16T09:11:28;2.57;;;1.93;;
6842;SDS011;3460;52.028;8.916;2024-02-16T09:13:56;7.03;;;1.90;;
6842;SDS011;3460;52.028;8.916;2024-02-16T09:16:23;3.30;;;1.90;;
6842;SDS011;3460;52.028;8.916;2024-02-16T09:18:50;4.30;;;2.00;;
6842;SDS011;3460;52.028;8.916;2024-02-16T09:21:16;4.53;;;2.20;;
6842;SDS011;3460;52.028;8.916;2024-02-16T09:23:43;3.33;;;1.90;;
6842;SDS011;3460;52.028;8.916;2024-02-16T09:26:10;2.80;;;1.83;;
6842;SDS011;3460;52.028;8.916;2024-02-16T09:28:40;4.33;;;2.00;;
6842;SDS011;3460;52.028;8.916;2024-02-16T09:31:08;4.30;;;2.03;;
6842;SDS011;3460;52.028;8.916;2024-02-16T09:33:35;4.43;;;1.80;;
6842;SDS011;3460;52.028;8.916;2024-02-16T09:36:02;4.47;;;2.00;;
6842;SDS011;3460;52.028;8.916;2024-02-16T09:38:29;2.90;;;1.97;;
6842;SDS011;3460;52.028;8.916;2024-02-16T09:40:57;3.97;;;2.03;;
6842;SDS011;3460;52.028;8.916;2024-02-16T09:43:24;4.27;;;1.97;;
6842;SDS011;3460;52.028;8.916;2024-02-16T09:45:53;5.73;;;2.13;;
6842;SDS011;3460;52.028;8.916;2024-02-16T09:48:22;5.63;;;1.77;;
6842;SDS011;3460;52.028;8.916;2024-02-16T09:50:48;3.23;;;1.77;;
6842;SDS011;3460;52.028;8.916;2024-02-16T09:53:17;5.33;;;1.90;;
6842;SDS011;3460;52.028;8.916;2024-02-16T09:55:46;11.13;;;1.93;;
6842;SDS011;3460;52.028;8.916;2024-02-16T09:58:16;4.57;;;2.37;;
6842;SDS011;3460;52.028;8.916;2024-02-16T10:00:47;4.17;;;2.13;;
6842;SDS011;3460;52.028;8.916;2024-02-16T10:03:22;4.07;;;2.20;;
6842;SDS011;3460;52.028;8.916;2024-02-16T10:05:50;3.87;;;2.10;;
6842;SDS011;3460;52.028;8.916;2024-02-16T10:08:17;3.60;;;2.03;;
6842;SDS011;3460;52.028;8.916;2024-02-16T10:10:44;4.00;;;2.27;;
6842;SDS011;3460;52.028;8.916;2024-02-16T10:13:11;6.37;;;2.73;;
6842;SDS011;3460;52.028;8.916;2024-02-16T10:15:38;4.00;;;3.10;;
6842;SDS011;3460;52.028;8.916;2024-02-16T10:18:05;5.80;;;3.00;;
6842;SDS011;3460;52.028;8.916;2024-02-16T10:20:34;3.77;;;2.37;;
6842;SDS011;3460;52.028;8.916;2024-02-16T10:23:02;4.53;;;2.73;;
6842;SDS011;3460;52.028;8.916;2024-02-16T10:25:30;4.90;;;2.00;;
6842;SDS011;3460;52.028;8.916;2024-02-16T10:27:57;5.73;;;2.50;;
6842;SDS011;3460;52.028;8.916;2024-02-16T10:30:25;4.27;;;2.30;;
6842;SDS011;3460;52.028;8.916;2024-02-16T10:32:56;3.23;;;2.20;;
6842;SDS011;3460;52.028;8.916;2024-02-16T10:35:24;6.20;;;2.00;;
6842;SDS011;3460;52.028;8.916;2024-02-16T10:37:53;4.87;;;2.10;;
6842;SDS011;3460;52.028;8.916;2024-02-16T10:40:22;3.73;;;2.00;;
6842;SDS011;3460;52.028;8.916;2024-02-16T10:42:49;4.83;;;1.83;;
6842;SDS011;3460;52.028;8.916;2024-02-16T10:45:16;4.03;;;2.00;;
6842;SDS011;3460;52.028;8.916;2024-02-16T10:47:43;4.13;;;2.03;;
6842;SDS011;3460;52.028;8.916;2024-02-16T10:50:10;3.20;;;2.03;;
6842;SDS011;3460;52.028;8.916;2024-02-16T10:52:39;4.70;;;1.93;;
6842;SDS011;3460;52.028;8.916;2024-02-16T10:55:09;6.57;;;3.20;;
6842;SDS011;3460;52.028;8.916;2024-02-16T10:57:37;4.03;;;1.77;;
6842;SDS011;3460;52.028;8.916;2024-02-16T11:00:07;4.07;;;2.00;;
6842;SDS011;3460;52.028;8.916;2024-02-16T11:02:50;2.50;;;1.57;;
6842;SDS011;3460;52.028;8.916;2024-02-16T11:05:20;4.03;;;1.70;;
6842;SDS011;3460;52.028;8.916;2024-02-16T11:08:01;2.63;;;1.77;;
6842;SDS011;3460;52.028;8.916;2024-02-16T11:10:30;5.70;;;2.00;;
6842;SDS011;3460;52.028;8.916;2024-02-16T11:13:00;4.80;;;1.93;;
6842;SDS011;3460;52.028;8.916;2024-02-16T11:15:28;4.03;;;1.87;;
6842;SDS011;3460;52.028;8.916;2024-02-16T11:17:57;5.47;;;1.70;;
6842;SDS011;3460;52.028;8.916;2024-02-16T11:20:24;7.43;;;1.90;;
6842;SDS011;3460;52.028;8.916;2024-02-16T11:22:52;3.67;;;2.00;;
6842;SDS011;3460;52.028;8.916;2024-02-16T11:25:19;4.87;;;1.60;;
6842;SDS011;3460;52.028;8.916;2024-02-16T11:27:58;4.03;;;1.63;;
6842;SDS011;3460;52.028;8.916;2024-02-16T11:30:25;4.30;;;1.80;;
6842;SDS011;3460;52.028;8.916;2024-02-16T11:32:52;5.17;;;1.97;;
6842;SDS011;3460;52.028;8.916;2024-02-16T11:35:18;4.77;;;1.67;;
6842;SDS011;3460;52.028;8.916;2024-02-16T11:37:45;5.00;;;2.13;;
6842;SDS011;3460;52.028;8.916;2024-02-16T11:40:13;6.47;;;2.00;;
6842;SDS011;3460;52.028;8.916;2024-02-16T11:42:41;2.83;;;2.00;;
6842;SDS011;3460;52.028;8.916;2024-02-16T11:45:11;3.60;;;1.80;;
6842;SDS011;3460;52.028;8.916;2024-02-16T11:47:38;9.67;;;5.33;;
6842;SDS011;3460;52.028;8.916;2024-02-16T11:50:06;9.00;;;4.27;;
6842;SDS011;3460;52.028;8.916;2024-02-16T11:52:36;4.33;;;2.10;;
6842;SDS011;3460;52.028;8.916;2024-02-16T11:55:04;2.93;;;2.17;;
6842;SDS011;3460;52.028;8.916;2024-02-16T11:57:34;6.43;;;2.03;;
6842;SDS011;3460;52.028;8.916;2024-02-16T12:00:03;4.00;;;2.20;;
6842;SDS011;3460;52.028;8.916;2024-02-16T12:02:34;5.00;;;1.83;;
6842;SDS011;3460;52.028;8.916;2024-02-16T12:05:01;3.57;;;2.17;;
6842;SDS011;3460;52.028;8.916;2024-02-16T12:07:28;9.73;;;2.27;;
6842;SDS011;3460;52.028;8.916;2024-02-16T12:09:56;4.30;;;2.10;;
6842;SDS011;3460;52.028;8.916;2024-02-16T12:12:23;5.37;;;2.17;;
6842;SDS011;3460;52.028;8.916;2024-02-16T12:14:50;3.50;;;2.00;;
6842;SDS011;3460;52.028;8.916;2024-02-16T12:17:19;8.03;;;2.20;;
6842;SDS011;3460;52.028;8.916;2024-02-16T12:19:46;3.63;;;2.10;;
6842;SDS011;3460;52.028;8.916;2024-02-16T12:22:16;4.47;;;1.97;;
6842;SDS011;3460;52.028;8.916;2024-02-16T12:24:44;3.57;;;1.73;;
6842;SDS011;3460;52.028;8.916;2024-02-16T12:27:10;4.37;;;2.20;;
6842;SDS011;3460;52.028;8.916;2024-02-16T12:29:38;3.83;;;2.00;;
6842;SDS011;3460;52.028;8.916;2024-02-16T12:32:05;3.23;;;2.17;;
6842;SDS011;3460;52.028;8.916;2024-02-16T12:34:35;7.70;;;2.70;;
6842;SDS011;3460;52.028;8.916;2024-02-16T12:37:04;7.70;;;3.57;;
6842;SDS011;3460;52.028;8.916;2024-02-16T12:39:32;9.90;;;2.40;;
6842;SDS011;3460;52.028;8.916;2024-02-16T12:41:59;3.37;;;2.03;;
6842;SDS011;3460;52.028;8.916;2024-02-16T12:44:26;5.93;;;2.43;;
6842;SDS011;3460;52.028;8.916;2024-02-16T12:46:53;3.80;;;2.00;;
6842;SDS011;3460;52.028;8.916;2024-02-16T12:49:20;5.67;;;2.20;;
6842;SDS011;3460;52.028;8.916;2024-02-16T12:51:49;7.47;;;2.37;;
6842;SDS011;3460;52.028;8.916;2024-02-16T12:54:16;4.83;;;2.53;;
6842;SDS011;3460;52.028;8.916;2024-02-16T12:56:44;9.80;;;2.60;;
6842;SDS011;3460;52.028;8.916;2024-02-16T12:59:11;6.20;;;2.40;;
6842;SDS011;3460;52.028;8.916;2024-02-16T13:01:38;3.13;;;2.20;;
6842;SDS011;3460;52.028;8.916;2024-02-16T13:04:05;5.07;;;2.20;;
6842;SDS011;3460;52.028;8.916;2024-02-16T13:06:32;5.50;;;2.40;;
6842;SDS011;3460;52.028;8.916;2024-02-16T13:09:00;7.13;;;2.50;;
6842;SDS011;3460;52.028;8.916;2024-02-16T13:11:27;8.30;;;2.37;;
6842;SDS011;3460;52.028;8.916;2024-02-16T13:13:55;5.67;;;2.80;;
6842;SDS011;3460;52.028;8.916;2024-02-16T13:16:21;6.10;;;2.70;;
6842;SDS011;3460;52.028;8.916;2024-02-16T13:18:48;7.67;;;2.70;;
6842;SDS011;3460;52.028;8.916;2024-02-16T13:21:15;9.97;;;3.40;;
6842;SDS011;3460;52.028;8.916;2024-02-16T13:23:42;6.47;;;2.80;;
6842;SDS011;3460;52.028;8.916;2024-02-16T13:26:10;4.70;;;2.73;;
6842;SDS011;3460;52.028;8.916;2024-02-16T13:28:37;5.37;;;2.43;;
6842;SDS011;3460;52.028;8.916;2024-02-16T13:31:04;6.27;;;2.50;;
6842;SDS011;3460;52.028;8.916;2024-02-16T13:33:31;5.67;;;2.80;;
6842;SDS011;3460;52.028;8.916;2024-02-16T13:35:57;7.10;;;2.80;;
6842;SDS011;3460;52.028;8.916;2024-02-16T13:38:24;5.63;;;2.77;;
6842;SDS011;3460;52.028;8.916;2024-02-16T13:40:51;6.33;;;2.60;;
6842;SDS011;3460;52.028;8.916;2024-02-16T13:43:19;5.20;;;2.50;;
6842;SDS011;3460;52.028;8.916;2024-02-16T13:45:49;5.33;;;2.67;;
6842;SDS011;3460;52.028;8.916;2024-02-16T13:48:17;8.30;;;2.67;;
6842;SDS011;3460;52.028;8.916;2024-02-16T13:50:45;9.27;;;3.17;;
6842;SDS011;3460;52.028;8.916;2024-02-16T13:53:12;8.47;;;2.87;;
6842;SDS011;3460;52.028;8.916;2024-02-16T13:55:39;6.67;;;3.00;;
6842;SDS011;3460;52.028;8.916;2024-02-16T13:58:07;5.77;;;2.33;;
6842;SDS011;3460;52.028;8.916;2024-02-16T14:00:35;6.77;;;3.13;;
6842;SDS011;3460;52.028;8.916;2024-02-16T14:03:02;4.53;;;2.40;;
6842;SDS011;3460;52.028;8.916;2024-02-16T14:05:30;5.60;;;2.53;;
6842;SDS011;3460;52.028;8.916;2024-02-16T14:07:57;8.43;;;2.77;;
6842;SDS011;3460;52.028;8.916;2024-02-16T14:10:24;6.27;;;3.03;;
6842;SDS011;3460;52.028;8.916;2024-02-16T14:12:50;7.83;;;2.77;;
6842;SDS011;3460;52.028;8.916;2024-02-16T14:15:17;7.47;;;2.73;;
6842;SDS011;3460;52.028;8.916;2024-02-16T14:17:46;7.33;;;3.10;;
6842;SDS011;3460;52.028;8.916;2024-02-16T14:20:13;6.47;;;3.67;;
6842;SDS011;3460;52.028;8.916;2024-02-16T14:22:40;8.10;;;2.87;;
6842;SDS011;3460;52.028;8.916;2024-02-16T14:25:07;6.80;;;2.70;;
6842;SDS011;3460;52.028;8.916;2024-02-16T14:27:35;6.80;;;2.87;;
6842;SDS011;3460;52.028;8.916;2024-02-16T14:30:03;7.53;;;3.53;;
6842;SDS011;3460;52.028;8.916;2024-02-16T14:32:31;6.13;;;3.17;;
6842;SDS011;3460;52.028;8.916;2024-02-16T14:34:59;18.40;;;9.07;;
6842;SDS011;3460;52.028;8.916;2024-02-16T14:37:26;6.83;;;2.97;;
6842;SDS011;3460;52.028;8.916;2024-02-16T14:39:53;6.30;;;3.20;;
6842;SDS011;3460;52.028;8.916;2024-02-16T14:42:22;5.20;;;3.27;;
6842;SDS011;3460;52.028;8.916;2024-02-16T14:44:49;8.17;;;3.37;;
6842;SDS011;3460;52.028;8.916;2024-02-16T14:47:16;8.33;;;3.50;;
6842;SDS011;3460;52.028;8.916;2024-02-16T14:49:44;7.43;;;3.30;;
6842;SDS011;3460;52.028;8.916;2024-02-16T14:52:12;6.37;;;3.50;;
6842;SDS011;3460;52.028;8.916;2024-02-16T14:54:39;11.73;;;4.00;;
6842;SDS011;3460;52.028;8.916;2024-02-16T14:57:06;12.77;;;3.83;;
6842;SDS011;3460;52.028;8.916;2024-02-16T14:59:33;7.13;;;4.00;;
6842;SDS011;3460;52.028;8.916;2024-02-16T15:02:00;6.60;;;4.23;;
6842;SDS011;3460;52.028;8.916;2024-02-16T15:04:27;7.83;;;4.80;;
6842;SDS011;3460;52.028;8.916;2024-02-16T15:06:55;10.70;;;5.87;;
6842;SDS011;3460;52.028;8.916;2024-02-16T15:09:23;10.47;;;6.30;;
6842;SDS011;3460;52.028;8.916;2024-02-16T15:11:50;14.63;;;6.80;;
6842;SDS011;3460;52.028;8.916;2024-02-16T15:14:17;16.23;;;6.00;;
6842;SDS011;3460;52.028;8.916;2024-02-16T15:16:43;13.80;;;6.87;;
6842;SDS011;3460;52.028;8.916;2024-02-16T15:19:11;16.13;;;6.73;;
6842;SDS011;3460;52.028;8.916;2024-02-16T15:21:37;14.80;;;6.50;;